createdAt,value
2018-01-26T00:00:01.528Z,13.20
2018-01-26T00:02:29.058Z,11.40
2018-01-26T00:04:56.613Z,14.60
2018-01-26T00:07:24.185Z,13.60
2018-01-26T00:09:52.494Z,13.40
2018-01-26T00:12:20.019Z,11.63
2018-01-26T00:14:47.545Z,10.70
2018-01-26T00:17:15.841Z,11.10
2018-01-26T00:19:43.473Z,12.13
2018-01-26T00:22:10.993Z,11.90
2018-01-26T00:24:39.284Z,11.70
2018-01-26T00:27:06.814Z,15.63
2018-01-26T00:29:34.336Z,10.17
2018-01-26T00:32:01.921Z,11.50
2018-01-26T00:34:29.426Z,10.37
2018-01-26T00:36:57.716Z,10.00
2018-01-26T00:39:25.294Z,11.17
2018-01-26T00:41:52.812Z,8.67
2018-01-26T00:44:20.340Z,6.90
2018-01-26T00:46:47.882Z,11.07
2018-01-26T00:49:16.221Z,9.93
2018-01-26T00:51:43.867Z,8.73
2018-01-26T00:54:13.282Z,7.50
2018-01-26T00:56:41.604Z,10.13
2018-01-26T00:59:09.281Z,8.43
2018-01-26T01:01:37.571Z,7.80
2018-01-26T01:04:05.089Z,7.00
2018-01-26T01:06:33.545Z,8.43
2018-01-26T01:09:01.073Z,6.07
2018-01-26T01:11:28.612Z,20.83
2018-01-26T01:13:56.266Z,8.20
2018-01-26T01:16:23.794Z,7.00
2018-01-26T01:18:51.348Z,9.13
2018-01-26T01:21:18.911Z,10.23
2018-01-26T01:23:47.221Z,9.10
2018-01-26T01:26:14.781Z,10.93
2018-01-26T01:28:42.317Z,13.70
2018-01-26T01:31:09.833Z,6.20
2018-01-26T01:33:38.150Z,9.53
2018-01-26T01:36:06.462Z,8.47
2018-01-26T01:38:33.981Z,11.50
2018-01-26T01:41:01.492Z,6.07
2018-01-26T01:43:29.789Z,7.90
2018-01-26T01:45:57.311Z,5.83
2018-01-26T01:48:24.814Z,14.50
2018-01-26T01:50:52.667Z,10.80
2018-01-26T01:53:21.365Z,9.70
2018-01-26T01:55:48.892Z,7.80
2018-01-26T01:58:16.540Z,10.77
2018-01-26T02:00:44.073Z,17.03
2018-01-26T02:03:11.610Z,9.63
2018-01-26T02:05:39.144Z,15.60
2018-01-26T02:08:06.661Z,7.97
2018-01-26T02:10:34.195Z,15.27
2018-01-26T02:13:01.949Z,10.63
2018-01-26T02:15:29.497Z,14.50
2018-01-26T02:17:57.794Z,7.17
2018-01-26T02:20:25.372Z,17.03
2018-01-26T02:22:53.673Z,12.97
2018-01-26T02:25:21.320Z,9.43
2018-01-26T02:27:48.825Z,8.30
2018-01-26T02:30:16.506Z,10.97
2018-01-26T02:32:44.857Z,8.63
2018-01-26T02:35:12.399Z,8.50
2018-01-26T02:37:39.950Z,7.17
2018-01-26T02:40:08.249Z,7.27
2018-01-26T02:42:35.816Z,6.93
2018-01-26T02:45:04.120Z,9.53
2018-01-26T02:47:31.663Z,7.10
2018-01-26T02:50:00.754Z,17.73
2018-01-26T02:52:28.270Z,7.70
2018-01-26T02:54:55.783Z,6.83
2018-01-26T02:57:23.321Z,7.80
2018-01-26T02:59:51.621Z,8.93
2018-01-26T03:02:19.130Z,7.43
2018-01-26T03:04:47.545Z,15.53
2018-01-26T03:07:15.062Z,11.27
2018-01-26T03:09:42.593Z,6.77
2018-01-26T03:12:10.125Z,8.63
2018-01-26T03:14:37.676Z,13.83
2018-01-26T03:17:05.286Z,7.00
2018-01-26T03:19:33.574Z,8.20
2018-01-26T03:22:01.096Z,6.63
2018-01-26T03:24:28.738Z,7.50
2018-01-26T03:26:56.246Z,4.63
2018-01-26T03:29:24.556Z,7.17
2018-01-26T03:31:52.099Z,8.50
2018-01-26T03:34:19.625Z,8.03
2018-01-26T03:36:47.173Z,6.17
2018-01-26T03:39:14.723Z,5.23
2018-01-26T03:41:43.009Z,9.10
2018-01-26T03:44:10.531Z,10.70
2018-01-26T03:46:38.083Z,7.10
2018-01-26T03:49:05.678Z,7.80
2018-01-26T03:51:33.337Z,10.23
2018-01-26T03:54:00.917Z,13.23
2018-01-26T03:56:29.227Z,5.80
2018-01-26T03:58:57.527Z,6.23
2018-01-26T04:01:25.165Z,4.67
2018-01-26T04:03:53.467Z,7.23
2018-01-26T04:06:21.058Z,10.83
2018-01-26T04:08:48.603Z,6.47
2018-01-26T04:11:16.152Z,10.53
2018-01-26T04:13:44.453Z,5.07
2018-01-26T04:16:11.971Z,5.30
2018-01-26T04:18:39.525Z,9.90
2018-01-26T04:21:07.055Z,4.73
2018-01-26T04:23:34.584Z,4.97
2018-01-26T04:26:03.794Z,7.87
2018-01-26T04:28:32.462Z,5.57
2018-01-26T04:31:00.033Z,7.17
2018-01-26T04:33:27.546Z,8.70
2018-01-26T04:35:55.850Z,11.77
2018-01-26T04:38:23.376Z,9.00
2018-01-26T04:40:50.895Z,4.70
2018-01-26T04:43:18.454Z,4.63
2018-01-26T04:45:46.782Z,6.73
2018-01-26T04:48:15.071Z,8.20
2018-01-26T04:50:43.373Z,6.57
2018-01-26T04:53:11.688Z,6.57
2018-01-26T04:55:39.203Z,13.50
2018-01-26T04:58:06.726Z,5.80
2018-01-26T05:00:34.381Z,10.90
2018-01-26T05:03:02.700Z,6.93
2018-01-26T05:05:30.979Z,18.70
2018-01-26T05:07:58.554Z,16.53
2018-01-26T05:10:26.090Z,8.43
2018-01-26T05:12:54.375Z,10.07
2018-01-26T05:15:21.927Z,17.73
2018-01-26T05:17:49.461Z,19.90
2018-01-26T05:20:17.042Z,9.53
2018-01-26T05:22:44.589Z,14.87
2018-01-26T05:25:13.000Z,7.40
2018-01-26T05:27:40.573Z,7.90
2018-01-26T05:30:08.869Z,9.53
2018-01-26T05:32:37.187Z,5.87
2018-01-26T05:35:04.710Z,12.27
2018-01-26T05:37:32.439Z,16.97
2018-01-26T05:39:59.965Z,21.93
2018-01-26T05:42:27.491Z,8.87
2018-01-26T05:44:55.629Z,10.80
2018-01-26T05:47:23.160Z,13.63
2018-01-26T05:49:52.242Z,6.77
2018-01-26T05:52:19.788Z,15.67
2018-01-26T05:54:47.297Z,14.03
2018-01-26T05:57:14.913Z,16.90
2018-01-26T05:59:43.230Z,7.33
2018-01-26T06:02:10.767Z,10.67
2018-01-26T06:04:38.335Z,8.20
2018-01-26T06:07:05.886Z,15.63
2018-01-26T06:09:33.655Z,8.77
2018-01-26T06:12:01.200Z,12.90
2018-01-26T06:14:29.516Z,16.40
2018-01-26T06:16:57.129Z,18.53
2018-01-26T06:19:24.665Z,14.50
2018-01-26T06:21:52.201Z,18.80
2018-01-26T06:24:19.745Z,11.33
2018-01-26T06:26:48.042Z,10.53
2018-01-26T06:29:15.702Z,15.10
2018-01-26T06:31:43.246Z,23.47
2018-01-26T06:34:10.791Z,18.07
2018-01-26T06:36:39.100Z,10.23
2018-01-26T06:39:06.673Z,12.23
2018-01-26T06:41:35.077Z,13.23
2018-01-26T06:44:02.716Z,9.13
2018-01-26T06:46:30.233Z,12.47
2018-01-26T06:48:57.765Z,13.10
2018-01-26T06:51:25.493Z,8.80
2018-01-26T06:53:53.051Z,11.47
2018-01-26T06:56:20.637Z,24.70
2018-01-26T06:58:48.152Z,6.90
2018-01-26T07:01:16.636Z,8.00
2018-01-26T07:03:44.187Z,8.43
2018-01-26T07:06:12.501Z,12.47
2018-01-26T07:08:40.025Z,7.37
2018-01-26T07:11:07.542Z,13.80
2018-01-26T07:13:35.127Z,8.93
2018-01-26T07:16:03.664Z,8.50
2018-01-26T07:18:31.235Z,9.00
2018-01-26T07:20:58.837Z,9.23
2018-01-26T07:23:27.149Z,10.87
2018-01-26T07:25:54.753Z,8.40
2018-01-26T07:28:22.312Z,8.73
2018-01-26T07:30:49.830Z,12.20
2018-01-26T07:33:17.659Z,7.17
2018-01-26T07:35:45.252Z,15.57
2018-01-26T07:38:12.795Z,7.23
2018-01-26T07:40:40.309Z,8.43
2018-01-26T07:43:07.944Z,19.63
2018-01-26T07:45:35.470Z,13.93
2018-01-26T07:48:03.189Z,9.47
2018-01-26T07:50:30.784Z,11.63
2018-01-26T07:52:58.321Z,10.53
2018-01-26T07:55:26.861Z,14.50
2018-01-26T07:57:55.503Z,8.50
2018-01-26T08:00:23.036Z,14.87
2018-01-26T08:02:51.379Z,11.93
2018-01-26T08:05:18.905Z,8.93
2018-01-26T08:07:46.444Z,8.00
2018-01-26T08:10:14.013Z,11.63
2018-01-26T08:12:41.540Z,9.10
2018-01-26T08:15:09.809Z,9.30
2018-01-26T08:17:37.377Z,11.43
2018-01-26T08:20:05.690Z,15.30
2018-01-26T08:22:34.277Z,11.60
2018-01-26T08:25:01.811Z,12.10
2018-01-26T08:27:29.393Z,9.27
2018-01-26T08:29:57.716Z,11.50
2018-01-26T08:32:25.482Z,9.53
2018-01-26T08:34:53.125Z,27.40
2018-01-26T08:37:20.686Z,7.30
2018-01-26T08:39:48.288Z,7.93
2018-01-26T08:42:15.920Z,9.10
2018-01-26T08:44:43.447Z,9.57
2018-01-26T08:47:10.990Z,10.00
2018-01-26T08:49:38.513Z,10.93
2018-01-26T08:52:06.080Z,23.87
2018-01-26T08:54:33.977Z,19.93
2018-01-26T08:57:01.516Z,14.60
2018-01-26T08:59:29.070Z,28.70
2018-01-26T09:01:56.616Z,33.70
2018-01-26T09:04:24.920Z,22.23
2018-01-26T09:06:52.550Z,30.67
2018-01-26T09:09:20.072Z,23.53
2018-01-26T09:11:47.623Z,16.33
2018-01-26T09:14:16.309Z,26.33
2018-01-26T09:16:44.113Z,30.87
2018-01-26T09:19:11.646Z,15.27
2018-01-26T09:21:39.209Z,22.37
2018-01-26T09:24:07.513Z,20.87
2018-01-26T09:26:35.047Z,19.90
2018-01-26T09:29:03.596Z,31.87
2018-01-26T09:31:31.181Z,33.57
2018-01-26T09:33:58.693Z,24.50
2018-01-26T09:36:26.261Z,27.67
2018-01-26T09:38:53.993Z,18.90
2018-01-26T09:41:21.540Z,27.13
2018-01-26T09:43:49.839Z,25.57
2018-01-26T09:46:17.465Z,18.20
2018-01-26T09:48:45.791Z,22.23
2018-01-26T09:51:14.313Z,18.13
2018-01-26T09:53:41.869Z,13.47
2018-01-26T09:56:10.611Z,21.10
2018-01-26T09:58:38.332Z,12.63
2018-01-26T10:01:05.969Z,24.60
2018-01-26T10:03:33.757Z,20.43
2018-01-26T10:06:02.206Z,16.00
2018-01-26T10:08:29.755Z,22.53
2018-01-26T10:10:57.498Z,28.13
2018-01-26T10:13:25.027Z,26.83
2018-01-26T10:15:52.557Z,20.53
2018-01-26T10:18:21.911Z,10.97
2018-01-26T10:20:49.456Z,27.93
2018-01-26T10:23:17.020Z,12.70
2018-01-26T10:25:44.557Z,18.50
2018-01-26T10:28:12.241Z,14.67
2018-01-26T10:30:40.058Z,16.53
2018-01-26T10:33:08.518Z,19.60
2018-01-26T10:35:36.080Z,19.27
2018-01-26T10:38:03.900Z,24.73
2018-01-26T10:40:31.436Z,17.10
2018-01-26T10:43:00.469Z,17.67
2018-01-26T10:45:28.062Z,17.60
2018-01-26T10:47:55.629Z,17.27
2018-01-26T10:50:23.942Z,16.50
2018-01-26T10:52:51.535Z,18.67
2018-01-26T10:55:19.894Z,15.57
2018-01-26T10:57:47.402Z,17.13
2018-01-26T11:00:14.980Z,24.43
2018-01-26T11:02:42.561Z,23.67
2018-01-26T11:05:10.101Z,21.80
2018-01-26T11:07:37.686Z,20.33
2018-01-26T11:10:05.250Z,20.10
2018-01-26T11:12:33.044Z,15.27
2018-01-26T11:15:00.654Z,27.00
2018-01-26T11:17:28.181Z,20.13
2018-01-26T11:19:56.550Z,23.73
2018-01-26T11:22:24.870Z,22.23
2018-01-26T11:24:52.433Z,24.80
2018-01-26T11:27:19.969Z,18.90
2018-01-26T11:29:47.527Z,23.37
2018-01-26T11:32:15.185Z,24.00
2018-01-26T11:34:42.765Z,26.40
2018-01-26T11:37:10.513Z,25.00
2018-01-26T11:39:38.153Z,22.17
2018-01-26T11:42:05.769Z,24.03
2018-01-26T11:44:33.308Z,19.53
2018-01-26T11:47:00.858Z,26.23
2018-01-26T11:49:28.552Z,30.60
2018-01-26T11:51:56.350Z,25.50
2018-01-26T11:54:23.909Z,27.63
2018-01-26T11:56:52.249Z,33.30
2018-01-26T11:59:19.815Z,23.10
2018-01-26T12:01:47.455Z,33.00
2018-01-26T12:04:15.183Z,23.03
2018-01-26T12:06:42.785Z,24.00
2018-01-26T12:09:10.583Z,27.30
2018-01-26T12:11:38.234Z,24.60
2018-01-26T12:14:06.122Z,27.60
2018-01-26T12:16:34.411Z,29.40
2018-01-26T12:19:02.236Z,29.47
2018-01-26T12:21:29.802Z,28.50
2018-01-26T12:23:58.204Z,32.77
2018-01-26T12:26:25.756Z,27.63
2018-01-26T12:28:54.048Z,27.53
2018-01-26T12:31:21.681Z,37.33
2018-01-26T12:33:50.104Z,39.83
2018-01-26T12:36:17.776Z,35.83
2018-01-26T12:38:45.347Z,28.93
2018-01-26T12:41:13.014Z,33.20
2018-01-26T12:43:40.721Z,35.60
2018-01-26T12:46:08.274Z,34.83
2018-01-26T12:48:35.833Z,28.80
2018-01-26T12:51:03.364Z,28.27
2018-01-26T12:53:30.928Z,36.70
2018-01-26T12:55:59.360Z,29.50
2018-01-26T12:58:26.873Z,32.50
2018-01-26T13:00:54.566Z,34.47
2018-01-26T13:03:22.303Z,43.63
2018-01-26T13:05:49.990Z,34.40
2018-01-26T13:08:17.636Z,34.00
2018-01-26T13:10:45.232Z,32.47
2018-01-26T13:13:13.076Z,29.70
2018-01-26T13:15:41.469Z,33.60
2018-01-26T13:18:09.069Z,34.97
2018-01-26T13:20:37.438Z,41.00
2018-01-26T13:23:05.766Z,38.73
2018-01-26T13:25:33.355Z,34.13
2018-01-26T13:28:00.881Z,38.37
2018-01-26T13:30:28.409Z,42.93
2018-01-26T13:32:57.830Z,39.60
2018-01-26T13:35:25.386Z,35.27
2018-01-26T13:37:53.104Z,33.30
2018-01-26T13:40:20.836Z,35.57
2018-01-26T13:42:48.387Z,38.23
2018-01-26T13:45:16.120Z,36.30
2018-01-26T13:47:44.551Z,36.07
2018-01-26T13:50:13.174Z,39.43
2018-01-26T13:52:41.538Z,32.50
2018-01-26T13:55:09.937Z,37.63
2018-01-26T13:57:38.363Z,41.63
2018-01-26T14:00:06.985Z,35.53
2018-01-26T14:02:35.462Z,37.77
2018-01-26T14:05:03.160Z,42.10
2018-01-26T14:07:30.679Z,30.93
2018-01-26T14:09:59.047Z,33.27
2018-01-26T14:12:26.618Z,33.40
2018-01-26T14:14:54.920Z,33.97
2018-01-26T14:17:22.460Z,35.93
2018-01-26T14:19:50.820Z,30.50
2018-01-26T14:22:18.390Z,27.47
2018-01-26T14:24:46.695Z,27.40
2018-01-26T14:27:14.330Z,32.17
2018-01-26T14:29:42.670Z,33.90
2018-01-26T14:32:10.325Z,27.87
2018-01-26T14:34:37.911Z,30.07
2018-01-26T14:37:05.484Z,22.60
2018-01-26T14:39:33.081Z,26.33
2018-01-26T14:42:00.623Z,26.73
2018-01-26T14:44:28.150Z,26.10
2018-01-26T14:46:56.506Z,34.70
2018-01-26T14:49:24.030Z,29.60
2018-01-26T14:51:51.641Z,30.40
2018-01-26T14:54:19.974Z,27.63
2018-01-26T14:56:47.542Z,28.27
2018-01-26T14:59:15.076Z,32.00
2018-01-26T15:01:42.626Z,27.53
2018-01-26T15:04:10.162Z,35.60
2018-01-26T15:06:38.685Z,30.70
2018-01-26T15:09:06.239Z,27.57
2018-01-26T15:11:33.792Z,26.97
2018-01-26T15:14:03.288Z,26.93
2018-01-26T15:16:30.820Z,29.30
2018-01-26T15:18:59.119Z,30.37
2018-01-26T15:21:26.711Z,28.03
2018-01-26T15:23:54.252Z,31.10
2018-01-26T15:26:21.865Z,32.57
2018-01-26T15:28:50.311Z,34.63
2018-01-26T15:31:18.089Z,41.30
2018-01-26T15:33:45.651Z,39.03
2018-01-26T15:36:13.987Z,33.90
2018-01-26T15:38:41.540Z,28.37
2018-01-26T15:41:09.134Z,30.17
2018-01-26T15:43:36.667Z,31.73
2018-01-26T15:46:04.227Z,30.93
2018-01-26T15:48:31.995Z,35.63
2018-01-26T15:50:59.551Z,37.60
2018-01-26T15:53:27.073Z,31.60
2018-01-26T15:55:54.677Z,39.47
2018-01-26T15:58:22.322Z,33.33
2018-01-26T16:00:50.979Z,33.93
2018-01-26T16:03:18.986Z,39.17
2018-01-26T16:05:47.488Z,35.50
2018-01-26T16:08:15.980Z,34.57
2018-01-26T16:10:43.845Z,40.30
2018-01-26T16:13:12.193Z,36.37
2018-01-26T16:15:41.396Z,37.33
2018-01-26T16:18:09.186Z,65.50
2018-01-26T16:20:36.814Z,35.00
2018-01-26T16:23:04.391Z,36.20
2018-01-26T16:25:31.983Z,34.50
2018-01-26T16:27:59.499Z,34.37
2018-01-26T16:30:27.020Z,39.60
2018-01-26T16:32:54.698Z,33.00
2018-01-26T16:35:22.278Z,33.47
2018-01-26T16:37:49.912Z,41.73
2018-01-26T16:40:17.693Z,31.73
2018-01-26T16:42:45.272Z,31.90
2018-01-26T16:45:13.570Z,34.43
2018-01-26T16:47:41.232Z,35.23
2018-01-26T16:50:08.783Z,35.10
2018-01-26T16:52:36.322Z,40.70
2018-01-26T16:55:03.889Z,39.40
2018-01-26T16:57:32.184Z,39.00
2018-01-26T16:59:59.812Z,35.63
2018-01-26T17:02:27.362Z,37.27
2018-01-26T17:04:54.972Z,38.17
2018-01-26T17:07:48.984Z,40.30
2018-01-26T17:10:16.547Z,39.03
2018-01-26T17:12:44.114Z,48.00
2018-01-26T17:15:11.640Z,42.20
2018-01-26T17:17:39.153Z,42.07
2018-01-26T17:20:07.488Z,41.03
2018-01-26T17:22:35.005Z,38.17
2018-01-26T17:25:02.582Z,41.50
2018-01-26T17:27:30.390Z,56.40
2018-01-26T17:29:57.954Z,46.13
2018-01-26T17:32:25.543Z,48.30
2018-01-26T17:34:53.092Z,44.87
2018-01-26T17:37:21.389Z,51.93
2018-01-26T17:39:48.967Z,53.87
2018-01-26T17:42:16.597Z,45.67
2018-01-26T17:44:44.427Z,47.33
2018-01-26T17:47:11.976Z,53.03
2018-01-26T17:49:39.664Z,55.00
2018-01-26T17:52:07.179Z,52.77
2018-01-26T17:54:34.729Z,54.37
2018-01-26T17:57:02.334Z,47.37
2018-01-26T17:59:30.724Z,55.60
2018-01-26T18:01:59.230Z,53.03
2018-01-26T18:04:27.575Z,57.80
2018-01-26T18:06:55.906Z,62.40
2018-01-26T18:09:23.443Z,49.70
2018-01-26T18:11:50.986Z,60.47
2018-01-26T18:14:19.446Z,57.77
2018-01-26T18:16:47.838Z,62.53
2018-01-26T18:19:15.470Z,54.60
2018-01-26T18:21:43.873Z,53.87
2018-01-26T18:24:11.416Z,57.83
2018-01-26T18:26:39.755Z,60.03
2018-01-26T18:29:07.342Z,55.60
2018-01-26T18:31:34.893Z,67.13
2018-01-26T18:34:02.440Z,59.70
2018-01-26T18:36:29.991Z,62.83
2018-01-26T18:39:02.685Z,54.00
2018-01-26T18:41:31.058Z,63.20
2018-01-26T18:43:58.602Z,57.70
2018-01-26T18:46:26.143Z,57.53
2018-01-26T18:48:53.781Z,58.00
2018-01-26T18:51:21.422Z,61.00
2018-01-26T18:53:49.716Z,60.13
2018-01-26T18:56:17.447Z,64.70
2018-01-26T18:58:45.013Z,72.33
2018-01-26T19:01:13.332Z,58.43
2018-01-26T19:03:40.883Z,61.57
2018-01-26T19:06:08.455Z,67.87
2018-01-26T19:08:36.164Z,71.13
2018-01-26T19:11:04.477Z,73.87
2018-01-26T19:13:32.044Z,58.53
2018-01-26T19:15:59.622Z,63.83
2018-01-26T19:18:27.218Z,61.17
2018-01-26T19:20:55.547Z,62.67
2018-01-26T19:23:23.112Z,56.90
2018-01-26T19:25:50.697Z,58.60
2018-01-26T19:28:18.420Z,66.33
2018-01-26T19:30:45.979Z,56.00
2018-01-26T19:33:13.509Z,62.50
2018-01-26T19:35:41.069Z,61.97
2018-01-26T19:38:08.714Z,66.80
2018-01-26T19:40:37.030Z,72.17
2018-01-26T19:43:04.579Z,60.63
2018-01-26T19:45:32.200Z,59.50
2018-01-26T19:48:00.534Z,57.60
2018-01-26T19:50:28.079Z,66.33
2018-01-26T19:52:55.663Z,57.83
2018-01-26T19:55:23.198Z,68.00
2018-01-26T19:57:50.722Z,67.63
2018-01-26T20:00:19.099Z,56.40
2018-01-26T20:02:47.409Z,60.90
2018-01-26T20:05:32.632Z,57.80
2018-01-26T20:08:00.939Z,63.63
2018-01-26T20:10:29.504Z,61.10
2018-01-26T20:13:02.754Z,56.07
2018-01-26T20:15:30.360Z,58.83
2018-01-26T20:17:57.879Z,65.13
2018-01-26T20:20:25.469Z,66.60
2018-01-26T20:25:18.343Z,58.93
2018-01-26T20:27:45.954Z,62.43
2018-01-26T20:30:13.620Z,58.23
2018-01-26T20:32:41.130Z,68.60
2018-01-26T20:35:08.721Z,60.40
2018-01-26T20:37:36.362Z,66.03
2018-01-26T20:40:03.910Z,59.30
2018-01-26T20:42:31.516Z,61.27
2018-01-26T20:44:59.256Z,63.47
2018-01-26T20:47:26.804Z,55.33
2018-01-26T20:49:54.362Z,58.67
2018-01-26T20:52:22.695Z,62.70
2018-01-26T20:54:50.251Z,59.23
2018-01-26T20:57:18.051Z,63.97
2018-01-26T20:59:45.752Z,63.63
2018-01-26T21:02:13.301Z,66.57
2018-01-26T21:04:41.649Z,58.37
2018-01-26T21:07:09.205Z,53.20
2018-01-26T21:09:36.737Z,53.10
2018-01-26T21:12:04.311Z,54.07
2018-01-26T21:14:31.858Z,57.20
2018-01-26T21:16:59.398Z,60.73
2018-01-26T21:19:27.023Z,58.70
2018-01-26T21:21:55.346Z,55.30
2018-01-26T21:24:22.866Z,57.23
2018-01-26T21:26:50.468Z,54.87
2018-01-26T21:29:18.798Z,57.70
2018-01-26T21:31:46.362Z,57.87
2018-01-26T21:34:14.726Z,56.87
2018-01-26T21:36:42.264Z,67.83
2018-01-26T21:39:09.806Z,59.47
2018-01-26T21:41:37.388Z,63.93
2018-01-26T21:44:04.941Z,64.50
2018-01-26T21:46:32.533Z,63.53
2018-01-26T21:49:00.119Z,60.07
2018-01-26T21:51:27.671Z,51.00
2018-01-26T21:53:55.254Z,52.00
2018-01-26T21:56:22.836Z,52.63
2018-01-26T21:58:51.146Z,53.20
2018-01-26T22:01:18.767Z,57.63
2018-01-26T22:03:46.364Z,51.20
2018-01-26T22:09:18.604Z,55.23
2018-01-26T22:11:46.134Z,54.73
2018-01-26T22:14:14.571Z,52.23
2018-01-26T22:16:42.157Z,52.70
2018-01-26T22:19:09.701Z,50.50
2018-01-26T22:21:37.990Z,44.77
2018-01-26T22:24:05.559Z,46.83
2018-01-26T22:26:33.169Z,48.93
2018-01-26T22:29:01.466Z,47.43
2018-01-26T22:31:29.002Z,44.97
2018-01-26T22:33:56.548Z,47.00
2018-01-26T22:36:24.349Z,45.17
2018-01-26T22:38:51.928Z,54.83
2018-01-26T22:41:19.466Z,50.20
2018-01-26T22:43:47.036Z,42.60
2018-01-26T22:46:14.692Z,51.53
2018-01-26T22:48:42.205Z,52.20
2018-01-26T22:51:09.710Z,45.00
2018-01-26T22:53:37.281Z,43.10
2018-01-26T22:56:04.807Z,46.20
2018-01-26T22:58:32.389Z,43.33
2018-01-26T23:01:00.720Z,38.77
2018-01-26T23:03:28.276Z,43.60
2018-01-26T23:05:55.817Z,46.70
2018-01-26T23:08:23.389Z,41.60
2018-01-26T23:10:51.668Z,44.00
2018-01-26T23:13:19.433Z,42.90
2018-01-26T23:15:47.145Z,45.87
2018-01-26T23:18:14.762Z,43.93
2018-01-26T23:20:43.070Z,42.60
2018-01-26T23:23:11.385Z,49.97
2018-01-26T23:25:39.689Z,48.80
2018-01-26T23:28:07.209Z,36.53
2018-01-26T23:30:34.770Z,40.10
2018-01-26T23:33:02.301Z,55.30
2018-01-26T23:35:30.595Z,50.73
2018-01-26T23:37:58.993Z,39.10
2018-01-26T23:40:27.287Z,35.97
2018-01-26T23:42:54.842Z,39.50
2018-01-26T23:45:22.404Z,43.07
2018-01-26T23:47:49.941Z,39.90
2018-01-26T23:50:17.610Z,45.13
2018-01-26T23:52:45.168Z,48.50
2018-01-26T23:55:12.703Z,39.07
2018-01-26T23:57:41.004Z,38.87
